createdAt,value
2023-05-16T00:01:51.146Z,99.90
2023-05-16T00:04:18.173Z,99.90
2023-05-16T00:06:45.099Z,99.90
2023-05-16T00:09:12.120Z,99.90
2023-05-16T00:11:38.999Z,99.90
2023-05-16T00:14:05.889Z,99.90
2023-05-16T00:16:33.001Z,99.90
2023-05-16T00:19:01.083Z,99.90
2023-05-16T00:21:28.602Z,99.90
2023-05-16T00:23:55.728Z,99.90
2023-05-16T00:26:22.671Z,99.90
2023-05-16T00:28:49.522Z,99.90
2023-05-16T00:31:16.398Z,99.90
2023-05-16T00:33:44.456Z,99.90
2023-05-16T00:36:11.340Z,99.90
2023-05-16T00:38:38.936Z,99.90
2023-05-16T00:41:06.022Z,99.90
2023-05-16T00:43:32.863Z,99.90
2023-05-16T00:46:00.768Z,99.90
2023-05-16T00:48:29.025Z,99.90
2023-05-16T00:50:56.147Z,99.90
2023-05-16T00:53:24.777Z,99.90
2023-05-16T00:55:52.347Z,99.90
2023-05-16T00:58:20.259Z,99.90
2023-05-16T01:00:48.815Z,99.90
2023-05-16T01:03:16.072Z,99.90
2023-05-16T01:05:43.116Z,99.90
2023-05-16T01:08:10.781Z,99.90
2023-05-16T01:10:50.080Z,99.90
2023-05-16T01:13:36.265Z,99.90
2023-05-16T01:16:10.463Z,99.90
2023-05-16T01:19:09.680Z,99.90
2023-05-16T01:21:49.997Z,99.90
2023-05-16T01:24:23.948Z,99.90
2023-05-16T01:26:52.978Z,99.90
2023-05-16T01:29:20.065Z,99.90
2023-05-16T01:31:47.333Z,99.90
2023-05-16T01:34:14.227Z,99.90
2023-05-16T01:36:53.438Z,99.90
2023-05-16T01:39:36.358Z,99.90
2023-05-16T01:42:08.968Z,99.90
2023-05-16T01:44:43.527Z,99.90
2023-05-16T01:47:13.937Z,99.90
2023-05-16T01:50:05.500Z,99.90
2023-05-16T01:52:42.379Z,99.90
2023-05-16T01:55:12.394Z,99.90
2023-05-16T01:57:41.086Z,99.90
2023-05-16T02:00:08.728Z,99.90
2023-05-16T02:02:41.145Z,99.90
2023-05-16T02:05:09.475Z,99.90
2023-05-16T02:10:04.969Z,99.90
2023-05-16T02:12:35.381Z,99.90
2023-05-16T02:15:02.236Z,99.90
2023-05-16T02:17:29.146Z,99.90
2023-05-16T02:19:56.064Z,99.90
2023-05-16T02:22:23.011Z,99.90
2023-05-16T02:24:49.867Z,99.90
2023-05-16T02:27:16.735Z,99.90
2023-05-16T02:29:43.576Z,99.90
2023-05-16T02:32:10.411Z,99.90
2023-05-16T02:34:37.278Z,99.90
2023-05-16T02:37:05.089Z,99.90
2023-05-16T02:39:32.795Z,99.90
2023-05-16T02:41:59.650Z,99.90
2023-05-16T02:44:26.639Z,99.90
2023-05-16T02:46:53.470Z,99.90
2023-05-16T02:49:21.220Z,99.90
2023-05-16T02:51:48.095Z,99.90
2023-05-16T02:54:15.349Z,99.90
2023-05-16T02:56:42.257Z,99.90
2023-05-16T02:59:09.115Z,99.90
2023-05-16T03:01:36.035Z,99.90
2023-05-16T03:04:03.333Z,99.90
2023-05-16T03:06:30.665Z,99.90
2023-05-16T03:08:59.648Z,99.90
2023-05-16T03:11:28.976Z,99.90
2023-05-16T03:13:55.882Z,99.90
2023-05-16T03:16:24.418Z,99.90
2023-05-16T03:18:51.937Z,99.90
2023-05-16T03:21:18.839Z,99.90
2023-05-16T03:23:45.780Z,99.90
2023-05-16T03:26:12.696Z,99.90
2023-05-16T03:28:39.617Z,99.90
2023-05-16T03:31:06.530Z,99.90
2023-05-16T03:33:33.518Z,99.90
2023-05-16T03:36:00.451Z,99.90
2023-05-16T03:38:27.397Z,99.90
2023-05-16T03:40:54.778Z,99.90
2023-05-16T03:43:21.656Z,99.90
2023-05-16T03:45:48.567Z,99.90
2023-05-16T03:48:15.558Z,99.90
2023-05-16T03:50:42.371Z,99.90
2023-05-16T03:53:09.804Z,99.90
2023-05-16T03:55:36.878Z,99.90
2023-05-16T03:58:03.895Z,99.90
2023-05-16T04:00:30.825Z,99.90
2023-05-16T04:05:25.500Z,99.90
2023-05-16T04:07:52.664Z,99.90
2023-05-16T04:10:19.782Z,99.90
2023-05-16T04:12:46.664Z,99.90
2023-05-16T04:15:13.715Z,99.90
2023-05-16T04:17:40.693Z,99.90
2023-05-16T04:20:07.851Z,99.90
2023-05-16T04:22:34.719Z,99.90
2023-05-16T04:25:01.651Z,99.90
2023-05-16T04:27:29.069Z,99.90
2023-05-16T04:29:56.292Z,99.90
2023-05-16T04:32:24.094Z,99.90
2023-05-16T04:34:54.221Z,99.90
2023-05-16T04:37:21.568Z,99.90
2023-05-16T04:42:16.413Z,99.90
2023-05-16T04:44:44.123Z,99.90
2023-05-16T04:47:11.064Z,99.90
2023-05-16T04:49:37.900Z,99.90
2023-05-16T04:52:06.127Z,99.90
2023-05-16T04:54:33.001Z,99.90
2023-05-16T04:56:59.840Z,99.90
2023-05-16T04:59:26.785Z,99.90
2023-05-16T05:01:54.539Z,99.90
2023-05-16T05:04:22.587Z,99.90
2023-05-16T05:06:49.548Z,99.90
2023-05-16T05:09:17.281Z,99.90
2023-05-16T05:11:44.203Z,99.90
2023-05-16T05:14:11.098Z,99.90
2023-05-16T05:16:38.076Z,99.90
2023-05-16T05:19:05.207Z,99.90
2023-05-16T05:21:32.317Z,99.90
2023-05-16T05:23:59.280Z,99.90
2023-05-16T05:26:26.376Z,99.90
2023-05-16T05:29:04.565Z,99.90
2023-05-16T05:31:35.231Z,99.90
2023-05-16T05:34:02.929Z,99.90
2023-05-16T05:36:30.920Z,99.90
2023-05-16T05:38:57.964Z,99.90
2023-05-16T05:41:24.828Z,99.90
2023-05-16T05:43:51.808Z,99.90
2023-05-16T05:46:18.826Z,99.90
2023-05-16T05:48:45.826Z,99.90
2023-05-16T05:51:14.328Z,99.90
2023-05-16T05:53:41.896Z,99.90
2023-05-16T05:56:09.349Z,99.90
2023-05-16T05:58:36.351Z,99.90
2023-05-16T06:01:03.247Z,99.90
2023-05-16T06:03:30.392Z,99.90
2023-05-16T06:05:57.366Z,99.90
2023-05-16T06:08:24.306Z,99.90
2023-05-16T06:10:51.446Z,99.90
2023-05-16T06:13:18.320Z,99.90
2023-05-16T06:20:39.910Z,99.90
2023-05-16T06:23:06.711Z,99.90
2023-05-16T06:25:33.608Z,99.90
2023-05-16T06:28:00.484Z,99.90
2023-05-16T06:30:27.334Z,99.90
2023-05-16T06:32:54.201Z,99.90
2023-05-16T06:35:21.073Z,99.90
2023-05-16T06:37:47.947Z,99.90
2023-05-16T06:40:14.883Z,99.90
2023-05-16T06:42:41.839Z,99.90
2023-05-16T06:45:09.413Z,99.90
2023-05-16T06:47:36.581Z,99.90
2023-05-16T06:50:03.594Z,99.90
2023-05-16T06:52:30.978Z,99.90
2023-05-16T06:54:57.811Z,99.90
2023-05-16T06:57:24.837Z,99.90
2023-05-16T06:59:51.772Z,99.90
2023-05-16T07:02:18.733Z,99.90
2023-05-16T07:04:45.665Z,99.90
2023-05-16T07:07:13.646Z,99.90
2023-05-16T07:09:40.551Z,99.90
2023-05-16T07:12:07.698Z,99.90
2023-05-16T07:14:34.686Z,99.90
2023-05-16T07:17:02.061Z,99.90
2023-05-16T07:19:29.213Z,99.90
2023-05-16T07:21:56.164Z,99.90
2023-05-16T07:24:23.131Z,99.90
2023-05-16T07:26:50.135Z,99.90
2023-05-16T07:29:17.225Z,99.90
2023-05-16T07:31:44.165Z,99.90
2023-05-16T07:36:39.080Z,99.90
2023-05-16T07:39:06.012Z,99.90
2023-05-16T07:41:32.915Z,99.90
2023-05-16T07:43:59.850Z,99.90
2023-05-16T07:46:26.969Z,99.90
2023-05-16T07:48:53.987Z,99.90
2023-05-16T07:51:20.943Z,99.90
2023-05-16T07:53:48.105Z,99.90
2023-05-16T07:56:15.203Z,99.90
2023-05-16T07:58:42.245Z,99.90
2023-05-16T08:01:09.230Z,99.90
2023-05-16T08:03:36.891Z,99.90
2023-05-16T08:06:04.080Z,99.90
2023-05-16T08:08:31.338Z,99.90
2023-05-16T08:13:25.570Z,99.90
2023-05-16T08:15:52.766Z,99.90
2023-05-16T08:18:22.044Z,99.90
2023-05-16T08:20:49.452Z,99.90
2023-05-16T08:23:16.464Z,99.90
2023-05-16T08:25:43.410Z,99.90
2023-05-16T08:28:10.418Z,99.90
2023-05-16T08:30:37.284Z,99.90
2023-05-16T08:33:05.510Z,99.90
2023-05-16T08:35:32.999Z,99.90
2023-05-16T08:37:59.866Z,99.70
2023-05-16T08:40:27.752Z,99.00
2023-05-16T08:42:55.052Z,99.00
2023-05-16T08:45:23.573Z,99.00
2023-05-16T08:47:52.684Z,98.90
2023-05-16T08:50:19.788Z,99.30
2023-05-16T08:52:51.388Z,98.70
2023-05-16T08:55:20.408Z,97.80
2023-05-16T08:57:48.942Z,95.60
2023-05-16T09:00:17.445Z,93.60
2023-05-16T09:02:44.940Z,93.00
2023-05-16T09:05:13.966Z,93.80
2023-05-16T09:07:43.169Z,92.60
2023-05-16T09:10:11.043Z,91.70
2023-05-16T09:12:39.229Z,91.40
2023-05-16T09:15:07.925Z,91.00
2023-05-16T09:17:39.805Z,91.30
2023-05-16T09:20:12.389Z,91.50
2023-05-16T09:22:40.608Z,91.10
2023-05-16T09:25:12.749Z,90.80
2023-05-16T09:27:42.313Z,91.30
2023-05-16T09:30:09.940Z,91.10
2023-05-16T09:32:36.936Z,90.20
2023-05-16T09:35:04.241Z,90.50
2023-05-16T09:37:31.160Z,91.00
2023-05-16T09:39:58.117Z,91.40
2023-05-16T09:42:25.912Z,91.50
2023-05-16T09:44:55.017Z,91.50
2023-05-16T09:47:22.521Z,91.20
2023-05-16T09:49:54.339Z,91.00
2023-05-16T09:52:21.520Z,90.70
2023-05-16T09:54:49.985Z,90.60
2023-05-16T09:57:21.618Z,90.70
2023-05-16T09:59:48.650Z,90.20
2023-05-16T10:02:16.855Z,90.30
2023-05-16T10:04:43.898Z,89.80
2023-05-16T10:07:11.022Z,90.90
2023-05-16T10:09:40.753Z,90.50
2023-05-16T10:12:11.405Z,89.10
2023-05-16T10:14:41.119Z,89.50
2023-05-16T10:17:10.349Z,90.50
2023-05-16T10:19:39.440Z,90.50
2023-05-16T10:22:07.457Z,90.40
2023-05-16T10:24:58.158Z,88.10
2023-05-16T10:27:26.234Z,87.30
2023-05-16T10:29:55.120Z,85.40
2023-05-16T10:32:25.525Z,85.60
2023-05-16T10:34:53.115Z,87.30
2023-05-16T10:37:20.090Z,86.80
2023-05-16T10:39:47.250Z,85.90
2023-05-16T10:42:18.253Z,86.40
2023-05-16T10:44:51.619Z,84.90
2023-05-16T10:47:29.414Z,84.50
2023-05-16T10:49:56.477Z,82.80
2023-05-16T10:52:33.992Z,81.20
2023-05-16T10:55:04.866Z,79.90
2023-05-16T10:57:34.307Z,80.70
2023-05-16T11:00:02.216Z,81.20
2023-05-16T11:02:33.749Z,81.60
2023-05-16T11:05:02.928Z,81.50
2023-05-16T11:07:34.865Z,79.30
2023-05-16T11:10:15.963Z,78.20
2023-05-16T11:12:50.685Z,77.50
2023-05-16T11:15:18.882Z,77.30
2023-05-16T11:17:46.451Z,75.70
2023-05-16T11:20:40.260Z,77.30
2023-05-16T11:23:18.884Z,78.00
2023-05-16T11:25:47.107Z,78.10
2023-05-16T11:28:17.185Z,75.90
2023-05-16T11:30:46.818Z,76.30
2023-05-16T11:33:13.997Z,75.40
2023-05-16T11:35:41.109Z,77.10
2023-05-16T11:38:16.786Z,77.70
2023-05-16T11:40:44.781Z,78.00
2023-05-16T11:43:12.407Z,78.20
2023-05-16T11:50:36.437Z,74.40
2023-05-16T11:53:03.929Z,76.30
2023-05-16T11:58:02.105Z,72.80
2023-05-16T12:00:29.355Z,71.30
2023-05-16T12:03:03.209Z,72.10
2023-05-16T12:05:32.088Z,71.70
2023-05-16T12:07:59.863Z,72.40
2023-05-16T12:10:27.196Z,72.60
2023-05-16T12:12:56.267Z,73.50
2023-05-16T12:15:23.347Z,73.80
2023-05-16T12:17:51.574Z,74.60
2023-05-16T12:20:19.161Z,72.30
2023-05-16T12:22:47.349Z,72.80
2023-05-16T12:25:42.292Z,73.00
2023-05-16T12:28:10.146Z,70.40
2023-05-16T12:30:43.603Z,69.90
2023-05-16T12:33:13.236Z,69.80
2023-05-16T12:35:42.958Z,70.20
2023-05-16T12:38:14.546Z,71.10
2023-05-16T12:40:43.218Z,69.80
2023-05-16T12:43:15.066Z,68.40
2023-05-16T12:45:43.289Z,69.50
2023-05-16T12:48:14.267Z,69.70
2023-05-16T12:50:41.979Z,70.80
2023-05-16T12:53:14.013Z,72.00
2023-05-16T12:55:42.286Z,71.80
2023-05-16T12:58:10.456Z,72.20
2023-05-16T13:00:37.856Z,72.00
2023-05-16T13:03:06.344Z,70.90
2023-05-16T13:05:33.797Z,71.20
2023-05-16T13:08:01.424Z,67.30
2023-05-16T13:10:28.588Z,64.80
2023-05-16T13:12:59.974Z,64.80
2023-05-16T13:15:27.810Z,64.70
2023-05-16T13:17:55.368Z,64.60
2023-05-16T13:20:22.316Z,66.10
2023-05-16T13:22:49.256Z,66.20
2023-05-16T13:25:16.278Z,65.60
2023-05-16T13:27:43.268Z,66.30
2023-05-16T13:30:10.395Z,65.90
2023-05-16T13:32:38.164Z,66.60
2023-05-16T13:35:06.114Z,67.20
2023-05-16T13:37:33.512Z,68.90
2023-05-16T13:40:00.438Z,68.30
2023-05-16T13:42:27.658Z,68.70
2023-05-16T13:44:54.706Z,68.60
2023-05-16T13:47:21.771Z,68.60
2023-05-16T13:49:48.922Z,68.10
2023-05-16T13:52:16.402Z,70.50
2023-05-16T13:54:43.391Z,71.00
2023-05-16T13:57:10.426Z,73.00
2023-05-16T14:00:10.837Z,74.10
2023-05-16T14:02:26.221Z,74.60
2023-05-16T14:04:53.954Z,75.00
2023-05-16T14:07:21.225Z,74.20
2023-05-16T14:09:48.164Z,75.00
2023-05-16T14:12:15.122Z,72.40
2023-05-16T14:14:42.262Z,73.40
2023-05-16T14:17:09.257Z,73.70
2023-05-16T14:19:36.488Z,73.50
2023-05-16T14:22:03.575Z,73.30
2023-05-16T14:24:30.689Z,73.80
2023-05-16T14:26:57.591Z,74.60
2023-05-16T14:29:25.303Z,73.40
2023-05-16T14:31:52.479Z,72.50
2023-05-16T14:34:19.461Z,72.20
2023-05-16T14:36:46.376Z,71.50
2023-05-16T14:39:13.615Z,68.30
2023-05-16T14:41:40.681Z,66.40
2023-05-16T14:44:07.584Z,66.50
2023-05-16T14:46:34.550Z,65.50
2023-05-16T14:49:01.674Z,65.50
2023-05-16T14:51:28.739Z,65.50
2023-05-16T14:53:55.673Z,64.90
2023-05-16T14:56:22.778Z,65.80
2023-05-16T14:58:49.821Z,64.70
2023-05-16T15:01:17.305Z,65.10
2023-05-16T15:03:54.755Z,62.20
2023-05-16T15:06:23.918Z,61.60
2023-05-16T15:08:51.022Z,60.70
2023-05-16T15:11:17.950Z,61.20
2023-05-16T15:13:44.917Z,61.50
2023-05-16T15:16:12.478Z,62.10
2023-05-16T15:18:40.440Z,63.70
2023-05-16T15:21:07.550Z,62.80
2023-05-16T15:23:34.516Z,63.20
2023-05-16T15:26:01.528Z,64.30
2023-05-16T15:28:28.423Z,64.90
2023-05-16T15:30:55.395Z,65.00
2023-05-16T15:33:22.289Z,66.20
2023-05-16T15:35:49.174Z,65.60
2023-05-16T15:38:17.246Z,66.60
2023-05-16T15:40:44.244Z,67.10
2023-05-16T15:43:11.151Z,66.20
2023-05-16T15:45:40.342Z,67.10
2023-05-16T15:48:07.874Z,66.80
2023-05-16T15:50:34.838Z,66.10
2023-05-16T15:53:01.776Z,67.00
2023-05-16T15:55:28.907Z,67.80
2023-05-16T15:57:58.558Z,67.60
2023-05-16T16:00:26.247Z,68.40
2023-05-16T16:02:53.612Z,69.60
2023-05-16T16:05:20.707Z,68.40
2023-05-16T16:07:47.606Z,66.50
2023-05-16T16:10:14.659Z,66.10
2023-05-16T16:12:41.808Z,65.80
2023-05-16T16:15:10.687Z,65.40
2023-05-16T16:17:37.702Z,66.40
2023-05-16T16:20:05.246Z,67.40
2023-05-16T16:22:32.203Z,70.90
2023-05-16T16:25:00.915Z,63.60
2023-05-16T16:27:28.676Z,63.40
2023-05-16T16:29:55.565Z,62.70
2023-05-16T16:32:22.676Z,63.90
2023-05-16T16:34:50.232Z,62.40
2023-05-16T16:37:17.109Z,62.80
2023-05-16T16:39:44.450Z,65.00
2023-05-16T16:42:11.757Z,61.80
2023-05-16T16:44:38.679Z,61.30
2023-05-16T16:47:07.018Z,60.80
2023-05-16T16:49:33.965Z,60.40
2023-05-16T16:52:00.825Z,60.40
2023-05-16T16:54:28.183Z,59.80
2023-05-16T16:56:56.428Z,60.30
2023-05-16T16:59:23.551Z,60.70
2023-05-16T17:01:50.758Z,61.50
2023-05-16T17:04:17.699Z,61.90
2023-05-16T17:06:46.468Z,63.20
2023-05-16T17:09:18.196Z,63.60
2023-05-16T17:11:46.911Z,64.20
2023-05-16T17:14:14.771Z,65.40
2023-05-16T17:16:41.903Z,66.60
2023-05-16T17:19:10.863Z,67.70
2023-05-16T17:21:40.676Z,67.60
2023-05-16T17:24:08.091Z,68.10
2023-05-16T17:26:35.930Z,68.80
2023-05-16T17:29:07.098Z,68.50
2023-05-16T17:31:34.753Z,68.00
2023-05-16T17:34:01.663Z,66.30
2023-05-16T17:36:28.662Z,67.00
2023-05-16T17:38:55.540Z,64.40
2023-05-16T17:41:22.851Z,64.80
2023-05-16T17:43:49.878Z,65.00
2023-05-16T17:46:17.080Z,67.90
2023-05-16T17:51:11.840Z,65.00
2023-05-16T17:53:39.217Z,63.90
2023-05-16T17:56:06.122Z,64.70
2023-05-16T17:58:33.316Z,65.00
2023-05-16T18:01:01.134Z,64.40
2023-05-16T18:03:27.989Z,64.20
2023-05-16T18:05:54.991Z,64.60
2023-05-16T18:08:22.421Z,65.80
2023-05-16T18:10:52.527Z,64.80
2023-05-16T18:13:20.486Z,63.90
2023-05-16T18:15:47.367Z,64.30
2023-05-16T18:20:42.841Z,64.50
2023-05-16T18:23:09.744Z,64.40
2023-05-16T18:25:36.681Z,64.80
2023-05-16T18:28:03.891Z,65.40
2023-05-16T18:30:30.834Z,65.70
2023-05-16T18:32:57.780Z,66.30
2023-05-16T18:35:24.699Z,66.90
2023-05-16T18:37:51.766Z,67.30
2023-05-16T18:40:19.263Z,68.30
2023-05-16T18:42:46.154Z,67.90
2023-05-16T18:45:13.441Z,68.50
2023-05-16T18:47:40.584Z,69.10
2023-05-16T18:50:08.234Z,70.20
2023-05-16T18:52:36.897Z,70.10
2023-05-16T18:55:06.088Z,70.40
2023-05-16T18:57:33.835Z,70.70
2023-05-16T19:00:01.349Z,70.60
2023-05-16T19:02:41.074Z,71.20
2023-05-16T19:05:10.326Z,71.80
2023-05-16T19:07:37.428Z,72.30
2023-05-16T19:10:05.482Z,72.80
2023-05-16T19:12:32.420Z,72.80
2023-05-16T19:14:59.446Z,73.50
2023-05-16T19:17:26.795Z,73.50
2023-05-16T19:22:21.639Z,74.10
2023-05-16T19:24:48.635Z,75.20
2023-05-16T19:27:16.159Z,75.30
2023-05-16T19:29:43.113Z,75.30
2023-05-16T19:32:10.799Z,75.90
2023-05-16T19:34:37.779Z,75.80
2023-05-16T19:37:05.079Z,76.30
2023-05-16T19:39:32.227Z,76.30
2023-05-16T19:42:07.185Z,76.50
2023-05-16T19:44:35.274Z,77.20
2023-05-16T19:47:02.215Z,77.20
2023-05-16T19:49:31.723Z,78.10
2023-05-16T19:52:01.116Z,78.30
2023-05-16T19:54:28.951Z,79.00
2023-05-16T19:56:56.124Z,79.30
2023-05-16T19:59:23.108Z,80.00
2023-05-16T20:01:50.352Z,80.40
2023-05-16T20:04:17.443Z,81.80
2023-05-16T20:06:44.549Z,82.80
2023-05-16T20:09:14.670Z,82.50
2023-05-16T20:11:41.972Z,84.10
2023-05-16T20:14:09.604Z,83.40
2023-05-16T20:16:36.853Z,84.80
2023-05-16T20:19:04.166Z,85.10
2023-05-16T20:21:31.229Z,86.20
2023-05-16T20:23:59.015Z,86.30
2023-05-16T20:26:25.987Z,86.90
2023-05-16T20:28:53.469Z,88.00
2023-05-16T20:31:20.472Z,88.30
2023-05-16T20:36:15.178Z,88.40
2023-05-16T20:38:42.323Z,89.70
2023-05-16T20:43:36.496Z,90.40
2023-05-16T20:46:03.507Z,90.60
2023-05-16T20:48:30.507Z,90.50
2023-05-16T20:50:57.661Z,91.10
2023-05-16T20:53:25.108Z,91.90
2023-05-16T20:55:52.029Z,92.00
2023-05-16T20:58:19.297Z,92.10
2023-05-16T21:00:46.120Z,92.20
2023-05-16T21:03:13.065Z,92.30
2023-05-16T21:05:40.150Z,92.40
2023-05-16T21:08:07.474Z,92.80
2023-05-16T21:10:34.375Z,93.20
2023-05-16T21:13:01.249Z,93.40
2023-05-16T21:15:28.702Z,93.90
2023-05-16T21:17:55.881Z,94.10
2023-05-16T21:20:23.038Z,94.50
2023-05-16T21:22:50.445Z,94.10
2023-05-16T21:25:17.529Z,94.10
2023-05-16T21:27:44.416Z,94.20
2023-05-16T21:30:12.030Z,94.10
2023-05-16T21:32:38.883Z,94.00
2023-05-16T21:35:06.948Z,94.20
2023-05-16T21:37:33.970Z,94.60
2023-05-16T21:40:00.983Z,95.00
2023-05-16T21:42:27.962Z,95.20
2023-05-16T21:44:54.842Z,95.30
2023-05-16T21:47:21.724Z,95.40
2023-05-16T21:49:48.585Z,95.90
2023-05-16T21:54:43.065Z,95.40
2023-05-16T21:57:09.988Z,96.50
2023-05-16T21:59:36.848Z,96.30
2023-05-16T22:04:31.267Z,96.10
2023-05-16T22:06:58.240Z,96.80
2023-05-16T22:09:25.157Z,96.50
2023-05-16T22:11:55.032Z,96.50
2023-05-16T22:14:21.938Z,96.30
2023-05-16T22:16:48.905Z,96.40
2023-05-16T22:19:16.015Z,96.40
2023-05-16T22:21:43.242Z,96.80
2023-05-16T22:24:10.557Z,97.20
2023-05-16T22:26:37.430Z,97.40
2023-05-16T22:29:04.293Z,97.80
2023-05-16T22:31:31.188Z,97.70
2023-05-16T22:33:58.237Z,98.00
2023-05-16T22:36:25.178Z,98.20
2023-05-16T22:38:52.037Z,98.40
2023-05-16T22:41:18.931Z,98.40
2023-05-16T22:43:46.088Z,98.70
2023-05-16T22:48:41.473Z,97.60
2023-05-16T22:51:08.350Z,97.40
2023-05-16T22:53:35.397Z,97.00
2023-05-16T22:56:02.402Z,97.10
2023-05-16T22:58:29.277Z,97.60
2023-05-16T23:00:56.225Z,97.80
2023-05-16T23:03:23.406Z,98.30
2023-05-16T23:05:50.429Z,98.30
2023-05-16T23:10:45.033Z,98.50
2023-05-16T23:15:39.473Z,98.20
2023-05-16T23:18:06.573Z,98.30
2023-05-16T23:20:33.536Z,98.70
2023-05-16T23:23:00.406Z,98.60
2023-05-16T23:25:27.438Z,98.80
2023-05-16T23:27:57.653Z,98.90
2023-05-16T23:30:25.012Z,99.00
2023-05-16T23:32:52.121Z,99.00
2023-05-16T23:35:19.123Z,99.00
2023-05-16T23:37:45.974Z,99.10
2023-05-16T23:40:13.043Z,99.00
2023-05-16T23:42:42.851Z,98.80
2023-05-16T23:45:10.384Z,98.80
2023-05-16T23:47:37.366Z,99.30
2023-05-16T23:50:05.892Z,99.50
2023-05-16T23:52:32.837Z,99.40
2023-05-16T23:54:59.777Z,99.40
2023-05-16T23:57:26.869Z,99.30
2023-05-16T23:59:53.772Z,99.40
